sensor_id;sensor_type;location;lat;lon;timestamp;P1;durP1;ratioP1;P2;durP2;ratioP2
73359;SDS011;63092;43.582;19.528;2023-02-11T00:00:11;81.30;;;35.53;;
73359;SDS011;63092;43.582;19.528;2023-02-11T00:02:37;77.13;;;33.67;;
73359;SDS011;63092;43.582;19.528;2023-02-11T00:05:03;83.13;;;35.65;;
73359;SDS011;63092;43.582;19.528;2023-02-11T00:07:29;78.88;;;34.22;;
73359;SDS011;63092;43.582;19.528;2023-02-11T00:09:55;74.30;;;34.13;;
73359;SDS011;63092;43.582;19.528;2023-02-11T00:12:21;86.35;;;38.15;;
73359;SDS011;63092;43.582;19.528;2023-02-11T00:14:47;65.57;;;31.83;;
73359;SDS011;63092;43.582;19.528;2023-02-11T00:17:13;79.25;;;35.60;;
73359;SDS011;63092;43.582;19.528;2023-02-11T00:19:39;71.35;;;32.25;;
73359;SDS011;63092;43.582;19.528;2023-02-11T00:22:05;91.85;;;35.42;;
73359;SDS011;63092;43.582;19.528;2023-02-11T00:24:30;79.43;;;35.33;;
73359;SDS011;63092;43.582;19.528;2023-02-11T00:26:56;73.85;;;32.72;;
73359;SDS011;63092;43.582;19.528;2023-02-11T00:29:22;77.13;;;33.90;;
73359;SDS011;63092;43.582;19.528;2023-02-11T00:31:48;65.93;;;31.95;;
73359;SDS011;63092;43.582;19.528;2023-02-11T00:34:14;90.47;;;37.80;;
73359;SDS011;63092;43.582;19.528;2023-02-11T00:36:40;73.40;;;31.08;;
73359;SDS011;63092;43.582;19.528;2023-02-11T00:39:06;57.40;;;27.45;;
73359;SDS011;63092;43.582;19.528;2023-02-11T00:41:32;62.63;;;26.73;;
73359;SDS011;63092;43.582;19.528;2023-02-11T00:43:58;50.75;;;24.20;;
73359;SDS011;63092;43.582;19.528;2023-02-11T00:46:24;55.42;;;25.98;;
73359;SDS011;63092;43.582;19.528;2023-02-11T00:48:50;59.35;;;27.45;;
73359;SDS011;63092;43.582;19.528;2023-02-11T00:51:19;55.53;;;26.27;;
73359;SDS011;63092;43.582;19.528;2023-02-11T00:53:45;48.13;;;22.60;;
73359;SDS011;63092;43.582;19.528;2023-02-11T00:56:10;45.97;;;21.90;;
73359;SDS011;63092;43.582;19.528;2023-02-11T00:58:36;48.30;;;23.63;;
73359;SDS011;63092;43.582;19.528;2023-02-11T01:01:02;45.45;;;20.83;;
73359;SDS011;63092;43.582;19.528;2023-02-11T01:03:27;42.67;;;21.08;;
73359;SDS011;63092;43.582;19.528;2023-02-11T01:05:53;40.28;;;19.60;;
73359;SDS011;63092;43.582;19.528;2023-02-11T01:08:19;40.17;;;19.83;;
73359;SDS011;63092;43.582;19.528;2023-02-11T01:10:45;35.35;;;17.77;;
73359;SDS011;63092;43.582;19.528;2023-02-11T01:13:21;37.40;;;17.40;;
73359;SDS011;63092;43.582;19.528;2023-02-11T01:15:48;40.72;;;17.77;;
73359;SDS011;63092;43.582;19.528;2023-02-11T01:18:13;46.78;;;21.85;;
73359;SDS011;63092;43.582;19.528;2023-02-11T01:20:39;49.78;;;21.58;;
73359;SDS011;63092;43.582;19.528;2023-02-11T01:23:05;48.03;;;21.20;;
73359;SDS011;63092;43.582;19.528;2023-02-11T01:25:30;43.00;;;20.42;;
73359;SDS011;63092;43.582;19.528;2023-02-11T01:27:56;42.60;;;19.67;;
73359;SDS011;63092;43.582;19.528;2023-02-11T01:30:22;49.20;;;22.40;;
73359;SDS011;63092;43.582;19.528;2023-02-11T01:32:47;56.35;;;25.40;;
73359;SDS011;63092;43.582;19.528;2023-02-11T01:35:13;50.88;;;23.95;;
73359;SDS011;63092;43.582;19.528;2023-02-11T01:37:38;53.35;;;24.13;;
73359;SDS011;63092;43.582;19.528;2023-02-11T01:40:05;50.70;;;22.83;;
73359;SDS011;63092;43.582;19.528;2023-02-11T01:42:32;38.65;;;18.90;;
73359;SDS011;63092;43.582;19.528;2023-02-11T01:44:58;32.22;;;15.52;;
73359;SDS011;63092;43.582;19.528;2023-02-11T01:47:25;34.90;;;15.75;;
73359;SDS011;63092;43.582;19.528;2023-02-11T01:49:51;36.92;;;16.95;;
73359;SDS011;63092;43.582;19.528;2023-02-11T01:52:25;42.95;;;18.30;;
73359;SDS011;63092;43.582;19.528;2023-02-11T01:54:53;45.53;;;20.15;;
73359;SDS011;63092;43.582;19.528;2023-02-11T01:57:41;48.92;;;21.00;;
73359;SDS011;63092;43.582;19.528;2023-02-11T02:05:42;43.42;;;20.75;;
73359;SDS011;63092;43.582;19.528;2023-02-11T02:11:02;33.50;;;16.48;;
73359;SDS011;63092;43.582;19.528;2023-02-11T02:13:29;36.92;;;17.65;;
73359;SDS011;63092;43.582;19.528;2023-02-11T02:15:57;35.42;;;17.70;;
73359;SDS011;63092;43.582;19.528;2023-02-11T02:23:51;33.75;;;16.48;;
73359;SDS011;63092;43.582;19.528;2023-02-11T02:26:44;32.28;;;16.48;;
73359;SDS011;63092;43.582;19.528;2023-02-11T02:37:16;33.72;;;16.10;;
73359;SDS011;63092;43.582;19.528;2023-02-11T02:39:48;30.42;;;14.65;;
73359;SDS011;63092;43.582;19.528;2023-02-11T02:42:15;28.55;;;14.82;;
73359;SDS011;63092;43.582;19.528;2023-02-11T02:44:48;32.47;;;15.57;;
73359;SDS011;63092;43.582;19.528;2023-02-11T02:47:15;28.17;;;13.98;;
73359;SDS011;63092;43.582;19.528;2023-02-11T02:49:41;36.67;;;15.80;;
73359;SDS011;63092;43.582;19.528;2023-02-11T02:52:11;31.40;;;15.48;;
73359;SDS011;63092;43.582;19.528;2023-02-11T02:55:05;36.70;;;14.48;;
73359;SDS011;63092;43.582;19.528;2023-02-11T03:00:24;31.65;;;14.57;;
73359;SDS011;63092;43.582;19.528;2023-02-11T03:03:28;29.88;;;14.00;;
73359;SDS011;63092;43.582;19.528;2023-02-11T03:06:10;31.00;;;14.93;;
73359;SDS011;63092;43.582;19.528;2023-02-11T03:08:45;32.28;;;15.27;;
73359;SDS011;63092;43.582;19.528;2023-02-11T03:11:17;32.67;;;14.93;;
73359;SDS011;63092;43.582;19.528;2023-02-11T03:13:45;33.33;;;15.45;;
73359;SDS011;63092;43.582;19.528;2023-02-11T03:16:18;29.77;;;13.65;;
73359;SDS011;63092;43.582;19.528;2023-02-11T03:18:58;25.02;;;12.10;;
73359;SDS011;63092;43.582;19.528;2023-02-11T03:21:29;25.80;;;12.85;;
73359;SDS011;63092;43.582;19.528;2023-02-11T03:23:59;26.95;;;12.02;;
73359;SDS011;63092;43.582;19.528;2023-02-11T03:26:29;28.15;;;13.05;;
73359;SDS011;63092;43.582;19.528;2023-02-11T03:31:34;28.45;;;13.27;;
73359;SDS011;63092;43.582;19.528;2023-02-11T03:34:08;28.23;;;13.07;;
73359;SDS011;63092;43.582;19.528;2023-02-11T03:36:40;31.15;;;14.60;;
73359;SDS011;63092;43.582;19.528;2023-02-11T03:39:20;31.80;;;15.30;;
73359;SDS011;63092;43.582;19.528;2023-02-11T03:41:50;30.27;;;15.18;;
73359;SDS011;63092;43.582;19.528;2023-02-11T03:44:19;32.00;;;14.25;;
73359;SDS011;63092;43.582;19.528;2023-02-11T03:46:47;31.17;;;14.27;;
73359;SDS011;63092;43.582;19.528;2023-02-11T03:49:16;34.05;;;14.65;;
73359;SDS011;63092;43.582;19.528;2023-02-11T03:51:44;29.33;;;13.48;;
73359;SDS011;63092;43.582;19.528;2023-02-11T03:54:13;25.48;;;12.90;;
73359;SDS011;63092;43.582;19.528;2023-02-11T03:56:45;31.08;;;13.70;;
73359;SDS011;63092;43.582;19.528;2023-02-11T03:59:15;30.63;;;13.75;;
73359;SDS011;63092;43.582;19.528;2023-02-11T04:01:41;31.65;;;15.18;;
73359;SDS011;63092;43.582;19.528;2023-02-11T04:04:06;31.58;;;14.40;;
73359;SDS011;63092;43.582;19.528;2023-02-11T04:06:32;30.13;;;12.98;;
73359;SDS011;63092;43.582;19.528;2023-02-11T04:08:58;29.00;;;12.77;;
73359;SDS011;63092;43.582;19.528;2023-02-11T04:11:24;28.63;;;12.23;;
73359;SDS011;63092;43.582;19.528;2023-02-11T04:13:49;28.75;;;13.35;;
73359;SDS011;63092;43.582;19.528;2023-02-11T04:16:15;23.10;;;11.27;;
73359;SDS011;63092;43.582;19.528;2023-02-11T04:18:40;26.88;;;11.60;;
73359;SDS011;63092;43.582;19.528;2023-02-11T04:21:06;27.63;;;11.95;;
73359;SDS011;63092;43.582;19.528;2023-02-11T04:23:32;23.40;;;11.95;;
73359;SDS011;63092;43.582;19.528;2023-02-11T04:25:57;24.20;;;12.60;;
73359;SDS011;63092;43.582;19.528;2023-02-11T04:28:23;31.05;;;13.32;;
73359;SDS011;63092;43.582;19.528;2023-02-11T04:30:50;26.58;;;13.35;;
73359;SDS011;63092;43.582;19.528;2023-02-11T04:33:16;27.77;;;11.73;;
73359;SDS011;63092;43.582;19.528;2023-02-11T04:35:42;27.40;;;12.50;;
73359;SDS011;63092;43.582;19.528;2023-02-11T04:38:07;27.77;;;12.40;;
73359;SDS011;63092;43.582;19.528;2023-02-11T04:40:33;25.50;;;11.60;;
73359;SDS011;63092;43.582;19.528;2023-02-11T04:42:58;29.25;;;13.02;;
73359;SDS011;63092;43.582;19.528;2023-02-11T04:45:24;33.60;;;14.73;;
73359;SDS011;63092;43.582;19.528;2023-02-11T04:47:50;50.42;;;22.85;;
73359;SDS011;63092;43.582;19.528;2023-02-11T04:50:16;47.67;;;21.50;;
73359;SDS011;63092;43.582;19.528;2023-02-11T04:52:41;44.58;;;20.27;;
73359;SDS011;63092;43.582;19.528;2023-02-11T04:55:07;40.78;;;18.08;;
73359;SDS011;63092;43.582;19.528;2023-02-11T04:57:33;43.40;;;19.65;;
73359;SDS011;63092;43.582;19.528;2023-02-11T04:59:58;36.38;;;16.98;;
73359;SDS011;63092;43.582;19.528;2023-02-11T05:02:24;33.03;;;15.70;;
73359;SDS011;63092;43.582;19.528;2023-02-11T05:04:50;31.70;;;14.52;;
73359;SDS011;63092;43.582;19.528;2023-02-11T05:07:15;34.63;;;15.80;;
73359;SDS011;63092;43.582;19.528;2023-02-11T05:09:41;36.35;;;17.40;;
73359;SDS011;63092;43.582;19.528;2023-02-11T05:12:06;30.00;;;13.80;;
73359;SDS011;63092;43.582;19.528;2023-02-11T05:14:32;32.10;;;13.65;;
73359;SDS011;63092;43.582;19.528;2023-02-11T05:16:58;36.83;;;13.70;;
73359;SDS011;63092;43.582;19.528;2023-02-11T05:19:24;31.15;;;14.27;;
73359;SDS011;63092;43.582;19.528;2023-02-11T05:21:50;32.10;;;13.68;;
73359;SDS011;63092;43.582;19.528;2023-02-11T05:24:17;27.58;;;12.52;;
73359;SDS011;63092;43.582;19.528;2023-02-11T05:26:43;28.75;;;12.55;;
73359;SDS011;63092;43.582;19.528;2023-02-11T05:29:09;22.17;;;11.65;;
73359;SDS011;63092;43.582;19.528;2023-02-11T05:31:34;58.03;;;23.58;;
73359;SDS011;63092;43.582;19.528;2023-02-11T05:34:00;51.65;;;21.02;;
73359;SDS011;63092;43.582;19.528;2023-02-11T05:36:28;38.03;;;18.02;;
73359;SDS011;63092;43.582;19.528;2023-02-11T05:38:54;37.53;;;16.50;;
73359;SDS011;63092;43.582;19.528;2023-02-11T05:41:19;29.98;;;13.85;;
73359;SDS011;63092;43.582;19.528;2023-02-11T05:43:48;39.20;;;17.05;;
73359;SDS011;63092;43.582;19.528;2023-02-11T05:46:17;36.08;;;16.40;;
73359;SDS011;63092;43.582;19.528;2023-02-11T05:48:43;54.05;;;23.88;;
73359;SDS011;63092;43.582;19.528;2023-02-11T05:51:09;70.93;;;30.80;;
73359;SDS011;63092;43.582;19.528;2023-02-11T05:53:35;55.13;;;25.70;;
73359;SDS011;63092;43.582;19.528;2023-02-11T05:56:00;137.38;;;42.65;;
73359;SDS011;63092;43.582;19.528;2023-02-11T05:58:26;61.50;;;24.63;;
73359;SDS011;63092;43.582;19.528;2023-02-11T06:00:52;50.15;;;21.25;;
73359;SDS011;63092;43.582;19.528;2023-02-11T06:03:18;36.33;;;17.95;;
73359;SDS011;63092;43.582;19.528;2023-02-11T06:05:44;61.92;;;31.52;;
73359;SDS011;63092;43.582;19.528;2023-02-11T06:08:10;47.97;;;23.10;;
73359;SDS011;63092;43.582;19.528;2023-02-11T06:10:36;30.63;;;14.30;;
73359;SDS011;63092;43.582;19.528;2023-02-11T06:13:02;28.15;;;13.52;;
73359;SDS011;63092;43.582;19.528;2023-02-11T06:15:28;26.50;;;12.00;;
73359;SDS011;63092;43.582;19.528;2023-02-11T06:17:54;26.50;;;13.70;;
73359;SDS011;63092;43.582;19.528;2023-02-11T06:20:19;26.10;;;12.02;;
73359;SDS011;63092;43.582;19.528;2023-02-11T06:22:45;25.35;;;12.38;;
73359;SDS011;63092;43.582;19.528;2023-02-11T06:25:11;29.27;;;13.50;;
73359;SDS011;63092;43.582;19.528;2023-02-11T06:27:37;32.75;;;14.10;;
73359;SDS011;63092;43.582;19.528;2023-02-11T06:30:04;40.30;;;15.02;;
73359;SDS011;63092;43.582;19.528;2023-02-11T06:32:30;38.45;;;16.73;;
73359;SDS011;63092;43.582;19.528;2023-02-11T06:34:56;37.33;;;17.00;;
73359;SDS011;63092;43.582;19.528;2023-02-11T06:37:21;41.58;;;17.52;;
73359;SDS011;63092;43.582;19.528;2023-02-11T06:39:47;50.70;;;25.55;;
73359;SDS011;63092;43.582;19.528;2023-02-11T06:42:13;54.88;;;24.15;;
73359;SDS011;63092;43.582;19.528;2023-02-11T06:44:39;49.03;;;22.75;;
73359;SDS011;63092;43.582;19.528;2023-02-11T06:47:04;49.83;;;24.55;;
73359;SDS011;63092;43.582;19.528;2023-02-11T06:49:30;55.88;;;24.55;;
73359;SDS011;63092;43.582;19.528;2023-02-11T06:51:56;50.92;;;23.92;;
73359;SDS011;63092;43.582;19.528;2023-02-11T06:54:22;47.25;;;20.48;;
73359;SDS011;63092;43.582;19.528;2023-02-11T06:56:47;44.88;;;20.00;;
73359;SDS011;63092;43.582;19.528;2023-02-11T06:59:17;40.83;;;18.40;;
73359;SDS011;63092;43.582;19.528;2023-02-11T07:01:44;42.78;;;20.48;;
73359;SDS011;63092;43.582;19.528;2023-02-11T07:04:11;43.42;;;20.02;;
73359;SDS011;63092;43.582;19.528;2023-02-11T07:06:38;43.60;;;20.83;;
73359;SDS011;63092;43.582;19.528;2023-02-11T07:09:04;45.95;;;22.05;;
73359;SDS011;63092;43.582;19.528;2023-02-11T07:11:30;39.50;;;20.42;;
73359;SDS011;63092;43.582;19.528;2023-02-11T07:13:59;40.75;;;19.40;;
73359;SDS011;63092;43.582;19.528;2023-02-11T07:16:26;45.47;;;21.20;;
73359;SDS011;63092;43.582;19.528;2023-02-11T07:18:55;44.53;;;19.42;;
73359;SDS011;63092;43.582;19.528;2023-02-11T07:21:21;49.78;;;21.25;;
73359;SDS011;63092;43.582;19.528;2023-02-11T07:23:48;61.95;;;27.55;;
73359;SDS011;63092;43.582;19.528;2023-02-11T07:26:15;66.75;;;31.85;;
73359;SDS011;63092;43.582;19.528;2023-02-11T07:28:43;86.97;;;41.65;;
73359;SDS011;63092;43.582;19.528;2023-02-11T07:31:10;60.63;;;28.85;;
73359;SDS011;63092;43.582;19.528;2023-02-11T07:33:38;62.40;;;29.35;;
73359;SDS011;63092;43.582;19.528;2023-02-11T07:36:04;67.18;;;32.17;;
73359;SDS011;63092;43.582;19.528;2023-02-11T07:38:31;64.82;;;29.95;;
73359;SDS011;63092;43.582;19.528;2023-02-11T07:40:59;60.90;;;27.55;;
73359;SDS011;63092;43.582;19.528;2023-02-11T07:43:25;48.97;;;22.90;;
73359;SDS011;63092;43.582;19.528;2023-02-11T07:45:51;51.30;;;25.65;;
73359;SDS011;63092;43.582;19.528;2023-02-11T07:48:17;46.78;;;23.67;;
73359;SDS011;63092;43.582;19.528;2023-02-11T07:50:43;51.63;;;26.63;;
73359;SDS011;63092;43.582;19.528;2023-02-11T07:53:08;45.20;;;25.42;;
73359;SDS011;63092;43.582;19.528;2023-02-11T07:55:34;45.38;;;22.52;;
73359;SDS011;63092;43.582;19.528;2023-02-11T07:58:00;43.42;;;20.83;;
73359;SDS011;63092;43.582;19.528;2023-02-11T08:00:25;39.38;;;18.05;;
73359;SDS011;63092;43.582;19.528;2023-02-11T08:02:51;30.38;;;14.63;;
73359;SDS011;63092;43.582;19.528;2023-02-11T08:05:17;31.45;;;16.67;;
73359;SDS011;63092;43.582;19.528;2023-02-11T08:07:43;34.97;;;19.25;;
73359;SDS011;63092;43.582;19.528;2023-02-11T08:10:08;38.33;;;18.95;;
73359;SDS011;63092;43.582;19.528;2023-02-11T08:12:34;52.97;;;30.52;;
73359;SDS011;63092;43.582;19.528;2023-02-11T08:15:00;39.67;;;20.95;;
73359;SDS011;63092;43.582;19.528;2023-02-11T08:17:25;43.95;;;23.90;;
73359;SDS011;63092;43.582;19.528;2023-02-11T08:19:51;52.28;;;23.50;;
73359;SDS011;63092;43.582;19.528;2023-02-11T08:22:17;37.03;;;17.27;;
73359;SDS011;63092;43.582;19.528;2023-02-11T08:24:43;35.53;;;18.92;;
73359;SDS011;63092;43.582;19.528;2023-02-11T08:27:08;34.42;;;17.25;;
73359;SDS011;63092;43.582;19.528;2023-02-11T08:29:34;33.70;;;16.85;;
73359;SDS011;63092;43.582;19.528;2023-02-11T08:32:00;29.25;;;15.90;;
73359;SDS011;63092;43.582;19.528;2023-02-11T08:34:26;49.83;;;23.13;;
73359;SDS011;63092;43.582;19.528;2023-02-11T08:36:52;28.05;;;13.65;;
73359;SDS011;63092;43.582;19.528;2023-02-11T08:39:19;25.25;;;13.65;;
73359;SDS011;63092;43.582;19.528;2023-02-11T08:41:49;27.95;;;15.20;;
73359;SDS011;63092;43.582;19.528;2023-02-11T08:44:17;34.85;;;17.00;;
73359;SDS011;63092;43.582;19.528;2023-02-11T08:46:43;30.42;;;16.90;;
73359;SDS011;63092;43.582;19.528;2023-02-11T08:49:09;33.28;;;14.55;;
73359;SDS011;63092;43.582;19.528;2023-02-11T08:51:35;28.63;;;14.80;;
73359;SDS011;63092;43.582;19.528;2023-02-11T08:54:01;28.17;;;16.42;;
73359;SDS011;63092;43.582;19.528;2023-02-11T08:56:27;30.27;;;16.30;;
73359;SDS011;63092;43.582;19.528;2023-02-11T08:58:53;33.88;;;17.25;;
73359;SDS011;63092;43.582;19.528;2023-02-11T09:01:26;30.33;;;13.63;;
73359;SDS011;63092;43.582;19.528;2023-02-11T09:03:54;28.73;;;13.77;;
73359;SDS011;63092;43.582;19.528;2023-02-11T09:06:20;25.70;;;13.23;;
73359;SDS011;63092;43.582;19.528;2023-02-11T09:08:48;26.80;;;14.15;;
73359;SDS011;63092;43.582;19.528;2023-02-11T09:11:16;30.65;;;13.48;;
73359;SDS011;63092;43.582;19.528;2023-02-11T09:13:44;28.90;;;14.70;;
73359;SDS011;63092;43.582;19.528;2023-02-11T09:16:17;39.38;;;19.52;;
73359;SDS011;63092;43.582;19.528;2023-02-11T09:18:45;28.63;;;13.85;;
73359;SDS011;63092;43.582;19.528;2023-02-11T09:21:12;41.60;;;19.15;;
73359;SDS011;63092;43.582;19.528;2023-02-11T09:23:39;48.03;;;23.00;;
73359;SDS011;63092;43.582;19.528;2023-02-11T09:26:08;29.55;;;15.00;;
73359;SDS011;63092;43.582;19.528;2023-02-11T09:28:45;27.65;;;14.30;;
73359;SDS011;63092;43.582;19.528;2023-02-11T09:31:13;27.40;;;13.60;;
73359;SDS011;63092;43.582;19.528;2023-02-11T09:33:42;33.50;;;17.20;;
73359;SDS011;63092;43.582;19.528;2023-02-11T09:36:12;26.73;;;13.98;;
73359;SDS011;63092;43.582;19.528;2023-02-11T09:38:42;26.30;;;12.85;;
73359;SDS011;63092;43.582;19.528;2023-02-11T09:43:53;22.67;;;12.57;;
73359;SDS011;63092;43.582;19.528;2023-02-11T09:46:21;34.72;;;15.63;;
73359;SDS011;63092;43.582;19.528;2023-02-11T09:48:48;27.67;;;14.07;;
73359;SDS011;63092;43.582;19.528;2023-02-11T09:51:23;32.25;;;16.00;;
73359;SDS011;63092;43.582;19.528;2023-02-11T09:56:24;23.67;;;12.10;;
73359;SDS011;63092;43.582;19.528;2023-02-11T09:58:51;27.98;;;13.65;;
73359;SDS011;63092;43.582;19.528;2023-02-11T10:01:33;32.80;;;19.08;;
73359;SDS011;63092;43.582;19.528;2023-02-11T10:04:24;28.05;;;15.20;;
73359;SDS011;63092;43.582;19.528;2023-02-11T10:07:14;27.63;;;14.95;;
73359;SDS011;63092;43.582;19.528;2023-02-11T10:09:48;21.02;;;11.50;;
73359;SDS011;63092;43.582;19.528;2023-02-11T10:12:42;26.48;;;14.43;;
73359;SDS011;63092;43.582;19.528;2023-02-11T10:15:20;22.65;;;12.05;;
73359;SDS011;63092;43.582;19.528;2023-02-11T10:25:42;32.30;;;14.43;;
73359;SDS011;63092;43.582;19.528;2023-02-11T10:28:14;25.88;;;13.57;;
73359;SDS011;63092;43.582;19.528;2023-02-11T10:30:48;23.48;;;13.85;;
73359;SDS011;63092;43.582;19.528;2023-02-11T10:33:45;24.45;;;13.95;;
73359;SDS011;63092;43.582;19.528;2023-02-11T10:36:17;30.08;;;13.60;;
73359;SDS011;63092;43.582;19.528;2023-02-11T10:38:43;26.40;;;14.73;;
73359;SDS011;63092;43.582;19.528;2023-02-11T10:41:12;21.75;;;12.65;;
73359;SDS011;63092;43.582;19.528;2023-02-11T10:43:46;20.48;;;11.48;;
73359;SDS011;63092;43.582;19.528;2023-02-11T10:46:21;23.50;;;12.40;;
73359;SDS011;63092;43.582;19.528;2023-02-11T10:48:52;26.25;;;13.98;;
73359;SDS011;63092;43.582;19.528;2023-02-11T10:51:25;27.95;;;13.50;;
73359;SDS011;63092;43.582;19.528;2023-02-11T10:54:37;28.38;;;13.90;;
73359;SDS011;63092;43.582;19.528;2023-02-11T10:56:49;24.05;;;12.48;;
73359;SDS011;63092;43.582;19.528;2023-02-11T11:01:59;23.50;;;11.18;;
73359;SDS011;63092;43.582;19.528;2023-02-11T11:06:54;27.30;;;14.18;;
73359;SDS011;63092;43.582;19.528;2023-02-11T11:09:48;22.30;;;11.85;;
73359;SDS011;63092;43.582;19.528;2023-02-11T11:14:59;24.75;;;12.95;;
73359;SDS011;63092;43.582;19.528;2023-02-11T11:17:40;21.48;;;12.45;;
73359;SDS011;63092;43.582;19.528;2023-02-11T11:20:13;24.42;;;13.23;;
73359;SDS011;63092;43.582;19.528;2023-02-11T11:23:06;19.55;;;12.13;;
73359;SDS011;63092;43.582;19.528;2023-02-11T11:25:42;22.23;;;12.30;;
73359;SDS011;63092;43.582;19.528;2023-02-11T11:30:44;22.40;;;12.48;;
73359;SDS011;63092;43.582;19.528;2023-02-11T11:33:16;18.35;;;9.82;;
73359;SDS011;63092;43.582;19.528;2023-02-11T11:36:05;19.30;;;10.63;;
73359;SDS011;63092;43.582;19.528;2023-02-11T11:38:34;17.75;;;9.80;;
73359;SDS011;63092;43.582;19.528;2023-02-11T11:41:15;18.67;;;10.13;;
73359;SDS011;63092;43.582;19.528;2023-02-11T11:43:57;20.13;;;11.27;;
73359;SDS011;63092;43.582;19.528;2023-02-11T11:46:35;23.63;;;11.70;;
73359;SDS011;63092;43.582;19.528;2023-02-11T11:49:16;21.47;;;11.33;;
73359;SDS011;63092;43.582;19.528;2023-02-11T11:54:58;22.00;;;12.52;;
73359;SDS011;63092;43.582;19.528;2023-02-11T11:57:32;23.75;;;13.57;;
73359;SDS011;63092;43.582;19.528;2023-02-11T12:00:01;19.83;;;11.25;;
73359;SDS011;63092;43.582;19.528;2023-02-11T12:05:25;23.30;;;11.27;;
73359;SDS011;63092;43.582;19.528;2023-02-11T12:14:02;19.67;;;11.00;;
73359;SDS011;63092;43.582;19.528;2023-02-11T12:16:59;27.52;;;13.73;;
73359;SDS011;63092;43.582;19.528;2023-02-11T12:23:20;21.80;;;12.40;;
73359;SDS011;63092;43.582;19.528;2023-02-11T12:25:38;25.23;;;13.65;;
73359;SDS011;63092;43.582;19.528;2023-02-11T12:28:22;25.95;;;13.05;;
73359;SDS011;63092;43.582;19.528;2023-02-11T12:42:35;16.73;;;8.52;;
73359;SDS011;63092;43.582;19.528;2023-02-11T12:45:25;16.55;;;9.38;;
73359;SDS011;63092;43.582;19.528;2023-02-11T12:50:35;20.17;;;12.05;;
73359;SDS011;63092;43.582;19.528;2023-02-11T12:56:40;19.45;;;10.55;;
73359;SDS011;63092;43.582;19.528;2023-02-11T12:59:30;20.77;;;11.05;;
73359;SDS011;63092;43.582;19.528;2023-02-11T13:05:06;18.42;;;10.38;;
73359;SDS011;63092;43.582;19.528;2023-02-11T13:07:55;20.58;;;12.32;;
73359;SDS011;63092;43.582;19.528;2023-02-11T13:10:46;22.35;;;10.60;;
73359;SDS011;63092;43.582;19.528;2023-02-11T13:13:32;23.85;;;13.00;;
73359;SDS011;63092;43.582;19.528;2023-02-11T13:16:06;24.77;;;12.80;;
73359;SDS011;63092;43.582;19.528;2023-02-11T13:18:51;23.45;;;13.40;;
73359;SDS011;63092;43.582;19.528;2023-02-11T13:21:36;19.75;;;11.43;;
73359;SDS011;63092;43.582;19.528;2023-02-11T13:24:25;18.90;;;9.10;;
73359;SDS011;63092;43.582;19.528;2023-02-11T13:37:57;20.08;;;11.10;;
73359;SDS011;63092;43.582;19.528;2023-02-11T13:40:25;22.98;;;10.77;;
73359;SDS011;63092;43.582;19.528;2023-02-11T13:42:58;16.17;;;9.00;;
73359;SDS011;63092;43.582;19.528;2023-02-11T13:45:27;18.35;;;9.68;;
73359;SDS011;63092;43.582;19.528;2023-02-11T13:48:01;19.27;;;10.63;;
73359;SDS011;63092;43.582;19.528;2023-02-11T13:50:31;19.00;;;9.77;;
73359;SDS011;63092;43.582;19.528;2023-02-11T13:53:10;22.95;;;13.48;;
73359;SDS011;63092;43.582;19.528;2023-02-11T13:55:36;21.67;;;13.20;;
73359;SDS011;63092;43.582;19.528;2023-02-11T13:58:32;24.00;;;13.68;;
73359;SDS011;63092;43.582;19.528;2023-02-11T14:01:01;33.83;;;19.30;;
73359;SDS011;63092;43.582;19.528;2023-02-11T14:03:28;31.45;;;16.98;;
73359;SDS011;63092;43.582;19.528;2023-02-11T14:06:19;36.10;;;19.63;;
73359;SDS011;63092;43.582;19.528;2023-02-11T14:22:26;26.98;;;16.85;;
73359;SDS011;63092;43.582;19.528;2023-02-11T14:24:59;44.28;;;25.15;;
73359;SDS011;63092;43.582;19.528;2023-02-11T14:27:27;32.65;;;21.27;;
73359;SDS011;63092;43.582;19.528;2023-02-11T14:43:37;53.47;;;27.83;;
73359;SDS011;63092;43.582;19.528;2023-02-11T14:46:13;56.58;;;31.85;;
73359;SDS011;63092;43.582;19.528;2023-02-11T14:48:43;89.18;;;46.17;;
73359;SDS011;63092;43.582;19.528;2023-02-11T14:51:21;92.43;;;46.35;;
73359;SDS011;63092;43.582;19.528;2023-02-11T14:53:52;78.00;;;39.55;;
73359;SDS011;63092;43.582;19.528;2023-02-11T14:56:23;62.35;;;33.65;;
73359;SDS011;63092;43.582;19.528;2023-02-11T14:58:50;64.70;;;32.75;;
73359;SDS011;63092;43.582;19.528;2023-02-11T15:03:55;62.17;;;33.72;;
73359;SDS011;63092;43.582;19.528;2023-02-11T15:06:24;56.72;;;30.80;;
73359;SDS011;63092;43.582;19.528;2023-02-11T15:08:54;40.15;;;22.92;;
73359;SDS011;63092;43.582;19.528;2023-02-11T15:11:25;46.33;;;27.30;;
73359;SDS011;63092;43.582;19.528;2023-02-11T15:13:53;68.72;;;35.63;;
73359;SDS011;63092;43.582;19.528;2023-02-11T15:16:22;115.10;;;55.40;;
73359;SDS011;63092;43.582;19.528;2023-02-11T15:18:54;152.37;;;74.30;;
73359;SDS011;63092;43.582;19.528;2023-02-11T15:21:27;131.93;;;64.65;;
73359;SDS011;63092;43.582;19.528;2023-02-11T15:24:00;93.88;;;47.40;;
73359;SDS011;63092;43.582;19.528;2023-02-11T15:26:30;69.00;;;35.58;;
73359;SDS011;63092;43.582;19.528;2023-02-11T15:28:56;102.35;;;49.75;;
73359;SDS011;63092;43.582;19.528;2023-02-11T15:31:25;58.20;;;32.27;;
73359;SDS011;63092;43.582;19.528;2023-02-11T15:33:52;31.17;;;17.83;;
73359;SDS011;63092;43.582;19.528;2023-02-11T15:36:22;37.08;;;18.50;;
73359;SDS011;63092;43.582;19.528;2023-02-11T15:39:53;66.43;;;31.60;;
73359;SDS011;63092;43.582;19.528;2023-02-11T15:42:20;90.57;;;39.90;;
73359;SDS011;63092;43.582;19.528;2023-02-11T15:45:07;75.63;;;33.10;;
73359;SDS011;63092;43.582;19.528;2023-02-11T15:48:01;42.58;;;22.30;;
73359;SDS011;63092;43.582;19.528;2023-02-11T15:50:32;45.83;;;24.65;;
73359;SDS011;63092;43.582;19.528;2023-02-11T15:53:46;47.53;;;24.65;;
73359;SDS011;63092;43.582;19.528;2023-02-11T15:56:14;46.20;;;26.90;;
73359;SDS011;63092;43.582;19.528;2023-02-11T15:58:49;36.95;;;23.40;;
73359;SDS011;63092;43.582;19.528;2023-02-11T16:01:17;28.00;;;17.73;;
73359;SDS011;63092;43.582;19.528;2023-02-11T16:03:47;44.75;;;23.70;;
73359;SDS011;63092;43.582;19.528;2023-02-11T16:08:40;81.47;;;39.35;;
73359;SDS011;63092;43.582;19.528;2023-02-11T16:11:17;60.13;;;29.60;;
73359;SDS011;63092;43.582;19.528;2023-02-11T16:13:54;64.03;;;30.30;;
73359;SDS011;63092;43.582;19.528;2023-02-11T16:16:21;56.45;;;27.67;;
73359;SDS011;63092;43.582;19.528;2023-02-11T16:18:50;51.95;;;28.70;;
73359;SDS011;63092;43.582;19.528;2023-02-11T16:21:18;52.10;;;30.45;;
73359;SDS011;63092;43.582;19.528;2023-02-11T16:23:49;63.95;;;34.60;;
73359;SDS011;63092;43.582;19.528;2023-02-11T16:28:50;57.05;;;32.67;;
73359;SDS011;63092;43.582;19.528;2023-02-11T16:31:17;50.92;;;29.80;;
73359;SDS011;63092;43.582;19.528;2023-02-11T16:33:43;68.32;;;36.13;;
73359;SDS011;63092;43.582;19.528;2023-02-11T16:36:12;74.88;;;38.33;;
73359;SDS011;63092;43.582;19.528;2023-02-11T16:38:41;92.03;;;46.65;;